Time;durP1;ratioP1;P1;durP2;ratioP2;P2;SDS_P1;SDS_P2;PMS_P1;PMS_P2;Temp;Humidity;BMP_temperature;BMP_pressure;BME280_temperature;BME280_humidity;BME280_pressure;Samples;Min_cycle;Max_cycle;Signal;HPM_P1;HPM_P2
2021/08/04 00:01:50;;;;;;;4.63;2.50;;;15.70;99.90;;;;;;5054637;28;20104;-39
2021/08/04 00:04:16;;;;;;;5.70;3.20;;;15.70;99.90;;;;;;5054381;28;20408;-39
2021/08/04 00:06:42;;;;;;;2.72;2.45;;;15.60;99.90;;;;;;5053425;28;20040;-39
2021/08/04 00:09:07;;;;;;;2.50;2.30;;;15.60;99.90;;;;;;5054492;28;20032;-38
2021/08/04 00:11:33;;;;;;;2.70;2.00;;;15.60;99.90;;;;;;5054246;28;20082;-39
2021/08/04 00:13:59;;;;;;;3.83;2.40;;;15.60;99.90;;;;;;5054217;28;20021;-39
2021/08/04 00:16:24;;;;;;;3.08;2.30;;;15.60;99.90;;;;;;5054216;28;20017;-39
2021/08/04 00:18:50;;;;;;;4.55;2.10;;;15.50;99.90;;;;;;5054221;28;20028;-39
2021/08/04 00:21:16;;;;;;;4.10;2.80;;;15.60;99.90;;;;;;5053326;28;20021;-39
2021/08/04 00:23:41;;;;;;;2.17;1.80;;;15.60;99.90;;;;;;5054057;28;20041;-40
2021/08/04 00:26:07;;;;;;;5.57;2.35;;;15.50;99.90;;;;;;5053849;28;20447;-40
2021/08/04 00:28:32;;;;;;;6.97;3.00;;;15.50;99.90;;;;;;5052932;28;20116;-39
2021/08/04 00:30:58;;;;;;;3.17;2.50;;;15.50;99.90;;;;;;5053627;28;20197;-39
2021/08/04 00:33:23;;;;;;;4.65;2.83;;;15.50;99.90;;;;;;5053814;28;20391;-39
2021/08/04 00:35:49;;;;;;;2.63;2.42;;;15.40;99.90;;;;;;5052789;28;20025;-39
2021/08/04 00:38:14;;;;;;;4.70;3.00;;;15.40;99.90;;;;;;5053798;28;20029;-39
2021/08/04 00:40:41;;;;;;;3.33;2.58;;;15.40;99.90;;;;;;5053746;28;20031;-39
2021/08/04 00:43:07;;;;;;;3.45;2.80;;;15.30;99.90;;;;;;5053708;28;20028;-39
2021/08/04 00:45:36;;;;;;;4.10;2.90;;;15.30;99.90;;;;;;5053738;28;20162;-39
2021/08/04 00:48:03;;;;;;;3.78;2.88;;;15.30;99.90;;;;;;5053703;28;20106;-39
2021/08/04 00:50:28;;;;;;;5.55;2.35;;;15.30;99.90;;;;;;5053002;28;20483;-39
2021/08/04 00:52:54;;;;;;;3.20;2.58;;;15.20;99.90;;;;;;5053382;28;20113;-39
2021/08/04 00:55:20;;;;;;;5.72;2.55;;;15.30;99.90;;;;;;5053641;28;20025;-40
2021/08/04 00:57:45;;;;;;;3.40;2.50;;;15.20;99.90;;;;;;5053378;28;20031;-38
2021/08/04 01:00:11;;;;;;;4.03;2.60;;;15.20;99.90;;;;;;5052187;28;20021;-39
2021/08/04 01:02:46;;;;;;;2.97;2.40;;;15.20;99.90;;;;;;5053213;28;20374;-40
2021/08/04 01:05:16;;;;;;;4.45;2.67;;;15.10;99.90;;;;;;5052422;28;20029;-41
2021/08/04 01:07:53;;;;;;;3.72;2.60;;;15.10;99.90;;;;;;5053363;28;20067;-39
2021/08/04 01:10:26;;;;;;;6.03;3.20;;;15.10;99.90;;;;;;5051872;28;20373;-41
2021/08/04 01:13:05;;;;;;;5.13;2.80;;;15.10;99.90;;;;;;5053179;28;20057;-41
2021/08/04 01:15:38;;;;;;;4.95;3.28;;;15.10;99.90;;;;;;5052990;28;20108;-41
2021/08/04 01:18:06;;;;;;;4.90;3.20;;;15.00;99.90;;;;;;5053203;28;20025;-41
2021/08/04 01:20:32;;;;;;;4.03;2.85;;;15.00;99.90;;;;;;5052125;28;20061;-39
2021/08/04 01:23:42;;;;;;;5.35;3.00;;;14.90;99.90;;;;;;5052919;28;20039;-39
2021/08/04 01:26:18;;;;;;;4.88;3.13;;;15.00;99.90;;;;;;5052083;28;20047;-39
2021/08/04 01:28:50;;;;;;;5.53;3.13;;;14.90;99.90;;;;;;5052897;28;20040;-39
2021/08/04 01:31:18;;;;;;;4.60;3.30;;;14.90;99.90;;;;;;5052817;28;20043;-40
2021/08/04 01:33:49;;;;;;;4.93;3.05;;;14.90;99.90;;;;;;5052821;28;20025;-39
2021/08/04 01:36:16;;;;;;;3.47;3.15;;;14.90;99.90;;;;;;5051989;28;20036;-39
2021/08/04 01:38:43;;;;;;;3.00;2.70;;;14.80;99.90;;;;;;5052633;28;20384;-39
2021/08/04 01:41:10;;;;;;;3.80;2.80;;;14.80;99.90;;;;;;5052810;28;20017;-41
2021/08/04 01:43:37;;;;;;;7.05;3.20;;;14.80;99.90;;;;;;5052671;28;20029;-39
2021/08/04 01:46:04;;;;;;;6.30;3.40;;;14.70;99.90;;;;;;5052688;28;20115;-39
2021/08/04 01:48:30;;;;;;;3.47;2.85;;;14.70;99.90;;;;;;5052710;28;20385;-39
2021/08/04 01:51:02;;;;;;;6.60;2.90;;;14.70;99.90;;;;;;5051650;28;20112;-40
2021/08/04 01:53:30;;;;;;;5.28;3.35;;;14.70;99.90;;;;;;5052553;28;20348;-39
2021/08/04 01:55:56;;;;;;;6.00;3.00;;;14.70;99.90;;;;;;5052588;28;20479;-39
2021/08/04 01:58:22;;;;;;;3.25;2.70;;;14.60;99.90;;;;;;5052363;28;20029;-39
2021/08/04 02:00:47;;;;;;;5.20;3.13;;;14.60;99.90;;;;;;5052473;28;20032;-39
2021/08/04 02:03:13;;;;;;;7.15;2.65;;;14.60;99.90;;;;;;5052322;28;20060;-39
2021/08/04 02:05:38;;;;;;;7.55;3.08;;;14.60;99.90;;;;;;5051536;28;20037;-39
2021/08/04 02:08:18;;;;;;;3.42;2.40;;;14.60;99.90;;;;;;5052485;28;20104;-39
2021/08/04 02:11:13;;;;;;;5.28;3.25;;;14.60;99.90;;;;;;5052310;28;20029;-39
2021/08/04 02:13:52;;;;;;;6.18;2.60;;;14.50;99.90;;;;;;5052287;28;20032;-39
2021/08/04 02:16:44;;;;;;;5.20;3.08;;;14.60;99.90;;;;;;5052498;28;20044;-40
2021/08/04 02:19:18;;;;;;;4.88;3.05;;;14.60;99.90;;;;;;5052292;28;20045;-39
2021/08/04 02:21:49;;;;;;;5.20;3.47;;;14.50;99.90;;;;;;5051360;28;20025;-39
2021/08/04 02:24:17;;;;;;;4.18;3.70;;;14.50;99.90;;;;;;5052379;28;20017;-39
2021/08/04 02:26:45;;;;;;;6.07;3.67;;;14.50;99.90;;;;;;5052194;28;20029;-39
2021/08/04 02:29:12;;;;;;;4.55;3.20;;;14.50;99.90;;;;;;5052298;28;20036;-40
2021/08/04 02:31:38;;;;;;;5.13;4.07;;;14.50;99.90;;;;;;5052145;28;20075;-39
2021/08/04 02:34:04;;;;;;;6.93;3.53;;;14.50;99.90;;;;;;5052204;28;20021;-39
2021/08/04 02:36:30;;;;;;;6.95;3.58;;;14.50;99.90;;;;;;5051358;28;20426;-39
2021/08/04 02:39:01;;;;;;;4.20;2.70;;;14.50;99.90;;;;;;5052168;28;20033;-39
2021/08/04 02:41:28;;;;;;;3.97;3.38;;;14.50;99.90;;;;;;5052168;28;20464;-39
2021/08/04 02:43:53;;;;;;;5.95;3.30;;;14.40;99.90;;;;;;5052097;28;20033;-40
2021/08/04 02:46:19;;;;;;;6.32;4.07;;;14.40;99.90;;;;;;5052054;28;20025;-39
2021/08/04 02:48:44;;;;;;;4.43;3.65;;;14.40;99.90;;;;;;5052097;28;20028;-39
2021/08/04 02:51:12;;;;;;;3.70;2.53;;;14.40;99.90;;;;;;5051784;28;20055;-41
2021/08/04 02:53:38;;;;;;;5.15;3.35;;;14.40;99.90;;;;;;5055714;28;20025;-39
2021/08/04 02:56:04;;;;;;;3.83;2.85;;;14.40;99.90;;;;;;5055842;28;20032;-39
2021/08/04 02:58:36;;;;;;;3.83;2.75;;;14.40;99.90;;;;;;5055813;28;20044;-39
2021/08/04 03:01:03;;;;;;;3.45;2.88;;;14.40;99.90;;;;;;5054298;28;20048;-39
2021/08/04 03:03:28;;;;;;;4.15;3.20;;;14.40;99.90;;;;;;5055550;28;20055;-39
2021/08/04 03:05:54;;;;;;;2.58;2.38;;;14.40;99.90;;;;;;5054693;28;20029;-39
2021/08/04 03:08:19;;;;;;;3.83;3.40;;;14.40;99.90;;;;;;5055571;28;20025;-39
2021/08/04 03:10:44;;;;;;;4.13;2.70;;;14.40;99.90;;;;;;5054308;28;20087;-40
2021/08/04 03:13:10;;;;;;;2.70;2.50;;;14.40;99.90;;;;;;5055414;28;20036;-39
2021/08/04 03:15:35;;;;;;;3.53;2.75;;;14.30;99.90;;;;;;5055341;28;20025;-39
2021/08/04 03:18:02;;;;;;;4.90;3.33;;;14.30;99.90;;;;;;5055360;28;20029;-39
2021/08/04 03:20:27;;;;;;;4.55;2.90;;;14.30;99.90;;;;;;5054434;28;20017;-39
2021/08/04 03:22:53;;;;;;;5.65;3.15;;;14.30;99.90;;;;;;5055265;28;20369;-39
2021/08/04 03:25:20;;;;;;;4.32;3.17;;;14.30;99.90;;;;;;5055310;28;20036;-39
2021/08/04 03:27:45;;;;;;;2.58;2.35;;;14.30;99.90;;;;;;5055192;28;20036;-39
2021/08/04 03:30:11;;;;;;;3.97;2.47;;;14.30;99.90;;;;;;5055133;28;20033;-39
2021/08/04 03:32:37;;;;;;;5.13;3.25;;;14.30;99.90;;;;;;5055045;28;20037;-39
2021/08/04 03:35:07;;;;;;;2.45;1.98;;;14.30;99.90;;;;;;5054087;28;20121;-41
2021/08/04 03:37:33;;;;;;;4.95;2.63;;;14.30;99.90;;;;;;5055082;28;20032;-39
2021/08/04 03:39:59;;;;;;;5.13;3.45;;;14.20;99.90;;;;;;5054922;28;20029;-40
2021/08/04 03:42:24;;;;;;;4.82;2.40;;;14.30;99.90;;;;;;5054976;28;20104;-39
2021/08/04 03:44:51;;;;;;;4.72;2.38;;;14.20;99.90;;;;;;5054969;28;20036;-39
2021/08/04 03:47:16;;;;;;;2.33;2.13;;;14.20;99.90;;;;;;5054929;28;20044;-39
2021/08/04 03:49:42;;;;;;;3.22;2.58;;;14.20;99.90;;;;;;5054891;28;20033;-39
2021/08/04 03:52:07;;;;;;;1.83;1.63;;;14.20;99.90;;;;;;5053717;28;20037;-39
2021/08/04 03:54:33;;;;;;;2.05;1.85;;;14.20;99.90;;;;;;5054714;28;20465;-40
2021/08/04 03:56:58;;;;;;;2.65;2.42;;;14.20;99.90;;;;;;5054692;28;20372;-39
2021/08/04 03:59:24;;;;;;;3.45;2.40;;;14.20;99.90;;;;;;5054589;28;20017;-39
2021/08/04 04:01:49;;;;;;;5.47;2.25;;;14.10;99.90;;;;;;5054336;28;20033;-39
2021/08/04 04:04:15;;;;;;;3.95;2.80;;;14.10;99.90;;;;;;5054393;28;20167;-39
2021/08/04 04:06:41;;;;;;;4.45;2.92;;;14.10;99.90;;;;;;5053615;28;20407;-39
2021/08/04 04:09:06;;;;;;;5.38;2.83;;;14.20;99.90;;;;;;5054423;28;20057;-39
2021/08/04 04:11:32;;;;;;;2.63;2.30;;;14.20;99.90;;;;;;5054363;28;20599;-39
2021/08/04 04:13:57;;;;;;;2.97;2.50;;;14.10;99.90;;;;;;5053968;28;20025;-39
2021/08/04 04:16:23;;;;;;;2.90;2.20;;;14.20;99.90;;;;;;5054415;28;20025;-40
2021/08/04 04:18:49;;;;;;;2.35;2.15;;;14.20;99.90;;;;;;5054008;28;20029;-39
2021/08/04 04:21:15;;;;;;;3.75;3.25;;;14.30;99.90;;;;;;5053287;28;20040;-39
2021/08/04 04:23:40;;;;;;;4.32;2.63;;;14.30;99.90;;;;;;5054262;28;20024;-39
2021/08/04 04:26:06;;;;;;;5.90;3.70;;;14.30;99.90;;;;;;5054060;28;20574;-39
2021/08/04 04:28:31;;;;;;;4.25;3.15;;;14.40;99.90;;;;;;5053936;28;20420;-39
2021/08/04 04:30:57;;;;;;;3.40;2.80;;;14.40;99.90;;;;;;5054039;28;20032;-39
2021/08/04 04:33:23;;;;;;;3.40;2.78;;;14.50;99.90;;;;;;5054051;28;20444;-39
2021/08/04 04:35:49;;;;;;;4.38;3.05;;;14.50;99.90;;;;;;5053042;28;20029;-39
2021/08/04 04:38:15;;;;;;;3.50;3.08;;;14.50;99.90;;;;;;5053902;28;20021;-39
2021/08/04 04:40:40;;;;;;;3.38;2.40;;;14.60;99.90;;;;;;5053715;28;20056;-39
2021/08/04 04:43:06;;;;;;;3.47;3.17;;;14.60;99.90;;;;;;5053657;28;20060;-39
2021/08/04 04:45:31;;;;;;;3.45;3.08;;;14.70;99.90;;;;;;5053815;28;20032;-39
2021/08/04 04:47:57;;;;;;;4.20;2.50;;;14.80;99.90;;;;;;5053676;28;20043;-39
2021/08/04 04:50:22;;;;;;;3.15;2.47;;;14.80;99.90;;;;;;5052822;28;20021;-39
2021/08/04 04:52:48;;;;;;;2.92;2.63;;;14.90;99.90;;;;;;5053639;28;20066;-39
2021/08/04 04:55:14;;;;;;;4.13;2.17;;;15.00;99.90;;;;;;5053642;28;20056;-40
2021/08/04 04:57:40;;;;;;;4.50;3.05;;;15.00;99.90;;;;;;5053500;28;20120;-39
2021/08/04 05:00:07;;;;;;;3.15;2.35;;;15.10;99.90;;;;;;5052036;28;20112;-39
2021/08/04 05:02:36;;;;;;;2.88;2.33;;;15.20;99.90;;;;;;5052098;28;20116;-39
2021/08/04 05:05:02;;;;;;;4.30;2.53;;;15.30;99.90;;;;;;5048523;28;20049;-41
2021/08/04 05:07:27;;;;;;;3.88;2.47;;;15.30;99.90;;;;;;5053180;28;20074;-39
2021/08/04 05:09:52;;;;;;;3.78;2.55;;;15.50;99.90;;;;;;5053022;28;20033;-39
2021/08/04 05:12:18;;;;;;;3.17;2.80;;;15.60;99.90;;;;;;5052898;28;20028;-39
2021/08/04 05:14:43;;;;;;;3.90;2.65;;;15.70;99.90;;;;;;5052395;28;20100;-39
2021/08/04 05:17:12;;;;;;;4.00;2.70;;;15.80;99.90;;;;;;5050878;28;20037;-39
2021/08/04 05:19:38;;;;;;;5.07;3.08;;;16.00;99.90;;;;;;5052154;28;20017;-39
2021/08/04 05:22:03;;;;;;;4.00;2.95;;;16.10;99.90;;;;;;5051912;28;20449;-39
2021/08/04 05:24:29;;;;;;;2.85;2.47;;;16.30;99.90;;;;;;5052736;28;20535;-40
2021/08/04 05:26:54;;;;;;;3.10;2.33;;;16.50;99.90;;;;;;5052600;28;20116;-39
2021/08/04 05:29:20;;;;;;;3.03;2.70;;;16.70;99.90;;;;;;5052894;28;20033;-39
2021/08/04 05:31:45;;;;;;;2.38;2.15;;;16.80;99.90;;;;;;5052740;28;20029;-39
2021/08/04 05:34:10;;;;;;;3.13;2.40;;;17.10;99.90;;;;;;5052620;28;20039;-39
2021/08/04 05:36:36;;;;;;;3.70;2.22;;;17.30;99.90;;;;;;5051740;28;20025;-39
2021/08/04 05:39:02;;;;;;;2.75;2.33;;;17.90;99.90;;;;;;5052545;28;20020;-39
2021/08/04 05:41:27;;;;;;;2.95;1.95;;;18.80;99.90;;;;;;5052556;28;20021;-39
2021/08/04 05:43:53;;;;;;;2.45;2.25;;;19.90;99.90;;;;;;5052588;28;20033;-39
2021/08/04 05:46:18;;;;;;;2.65;2.20;;;20.00;99.90;;;;;;5052610;28;20033;-39
2021/08/04 05:48:44;;;;;;;5.40;2.50;;;19.90;99.90;;;;;;5052816;28;20029;-39
2021/08/04 05:51:09;;;;;;;2.92;2.63;;;19.70;99.90;;;;;;5051710;28;20024;-39
2021/08/04 05:53:35;;;;;;;2.53;2.33;;;19.50;99.90;;;;;;5052629;28;20025;-39
2021/08/04 05:56:00;;;;;;;2.65;2.45;;;19.40;99.90;;;;;;5052565;28;20469;-39
2021/08/04 05:58:26;;;;;;;2.83;2.13;;;19.20;99.90;;;;;;5052524;28;20132;-39
2021/08/04 06:00:51;;;;;;;5.25;2.80;;;19.00;99.90;;;;;;5052631;28;20473;-39
2021/08/04 06:03:17;;;;;;;3.88;2.40;;;18.90;99.90;;;;;;5052301;28;20130;-40
2021/08/04 06:05:42;;;;;;;2.88;2.58;;;18.90;99.90;;;;;;5051723;28;20035;-39
2021/08/04 06:08:10;;;;;;;5.15;2.55;;;19.00;99.90;;;;;;5052443;28;20036;-39
2021/08/04 06:10:36;;;;;;;2.92;2.38;;;19.50;99.90;;;;;;5052501;28;20036;-39
2021/08/04 06:13:01;;;;;;;3.35;2.78;;;20.00;99.90;;;;;;5052258;28;20025;-42
2021/08/04 06:15:27;;;;;;;2.28;2.08;;;20.30;99.90;;;;;;5052469;28;20484;-39
2021/08/04 06:17:52;;;;;;;4.95;2.50;;;20.60;99.90;;;;;;5051161;28;20049;-41
2021/08/04 06:20:18;;;;;;;2.38;2.10;;;21.00;99.90;;;;;;5051378;28;20051;-40
2021/08/04 06:22:43;;;;;;;3.67;2.03;;;21.20;99.90;;;;;;5052394;28;20025;-40
2021/08/04 06:25:09;;;;;;;4.32;2.28;;;21.20;99.90;;;;;;5048936;28;20025;-39
2021/08/04 06:27:35;;;;;;;3.42;2.55;;;21.30;99.90;;;;;;5053775;28;20388;-39
2021/08/04 06:30:01;;;;;;;3.53;2.45;;;21.20;99.90;;;;;;5046909;28;20021;-40
2021/08/04 06:32:27;;;;;;;2.55;2.15;;;21.20;99.90;;;;;;5054602;28;20036;-42
2021/08/04 06:34:52;;;;;;;4.30;2.53;;;21.30;99.90;;;;;;5054713;28;20025;-46
2021/08/04 06:37:18;;;;;;;2.78;2.45;;;21.50;99.90;;;;;;5053694;28;20031;-44
2021/08/04 06:39:44;;;;;;;3.67;2.92;;;21.50;99.90;;;;;;5054639;28;20033;-43
2021/08/04 06:42:10;;;;;;;4.72;2.58;;;21.40;99.90;;;;;;5051656;28;20422;-42
2021/08/04 06:44:36;;;;;;;3.70;2.63;;;21.60;99.90;;;;;;5054690;28;20025;-42
2021/08/04 06:47:01;;;;;;;5.47;2.53;;;22.20;99.90;;;;;;5054188;28;20037;-44
2021/08/04 06:49:27;;;;;;;2.83;2.45;;;22.50;99.90;;;;;;5054230;28;20099;-42
2021/08/04 06:51:52;;;;;;;2.45;2.03;;;22.80;99.90;;;;;;5053415;28;20021;-46
2021/08/04 06:54:19;;;;;;;3.53;2.65;;;23.00;99.90;;;;;;5054283;28;20376;-42
2021/08/04 06:56:44;;;;;;;3.58;2.47;;;23.20;99.90;;;;;;5055840;28;20029;-43
2021/08/04 06:59:10;;;;;;;4.53;2.60;;;23.70;99.90;;;;;;5055764;28;20032;-42
2021/08/04 07:01:35;;;;;;;3.88;2.50;;;24.30;99.90;;;;;;5055606;28;20025;-44
2021/08/04 07:04:01;;;;;;;3.70;2.65;;;24.30;99.90;;;;;;5055502;28;20057;-47
2021/08/04 07:06:26;;;;;;;2.75;2.40;;;24.00;99.90;;;;;;5054370;28;20037;-43
2021/08/04 07:08:52;;;;;;;4.38;3.75;;;24.00;99.90;;;;;;5055628;28;20028;-42
2021/08/04 07:11:22;;;;;;;3.38;2.55;;;24.60;99.90;;;;;;5055331;28;20117;-43
2021/08/04 07:13:47;;;;;;;3.35;2.30;;;25.50;99.90;;;;;;5055383;28;20464;-44
2021/08/04 07:16:13;;;;;;;4.70;2.72;;;25.50;99.90;;;;;;5055355;28;20032;-44
2021/08/04 07:18:38;;;;;;;3.33;1.95;;;25.40;97.70;;;;;;5055410;28;20017;-42
2021/08/04 07:21:04;;;;;;;3.03;2.72;;;25.20;99.90;;;;;;5053915;28;20029;-42
2021/08/04 07:23:29;;;;;;;6.25;2.92;;;25.10;99.00;;;;;;5055281;28;20064;-45
2021/08/04 07:25:55;;;;;;;2.70;2.50;;;25.30;96.70;;;;;;5055060;28;20404;-44
2021/08/04 07:28:21;;;;;;;5.25;2.33;;;25.50;94.80;;;;;;5055143;28;20029;-43
2021/08/04 07:30:47;;;;;;;2.33;2.13;;;25.80;94.10;;;;;;5053943;28;20495;-43
2021/08/04 07:33:13;;;;;;;4.70;2.40;;;25.70;93.50;;;;;;5054940;28;20025;-43
2021/08/04 07:35:39;;;;;;;5.60;2.45;;;25.90;92.30;;;;;;5052471;28;20021;-43
2021/08/04 07:38:04;;;;;;;3.42;2.33;;;26.10;91.50;;;;;;5054545;28;20579;-44
2021/08/04 07:40:30;;;;;;;3.63;2.00;;;26.60;90.50;;;;;;5054841;28;20053;-42
2021/08/04 07:42:55;;;;;;;2.85;1.88;;;27.00;87.50;;;;;;5055020;28;20024;-43
2021/08/04 07:45:21;;;;;;;2.88;1.90;;;26.70;86.90;;;;;;5054889;28;20362;-45
2021/08/04 07:47:46;;;;;;;2.65;2.45;;;26.70;88.80;;;;;;5054894;28;20423;-44
2021/08/04 07:50:13;;;;;;;2.25;2.05;;;26.70;84.40;;;;;;5053458;28;20033;-44
2021/08/04 07:52:39;;;;;;;2.90;2.20;;;26.60;81.00;;;;;;5054706;28;20025;-42
2021/08/04 07:55:06;;;;;;;4.53;2.17;;;26.40;85.20;;;;;;5054538;28;20025;-44
2021/08/04 07:57:32;;;;;;;5.22;2.05;;;26.50;85.80;;;;;;5054716;28;20112;-43
2021/08/04 07:59:58;;;;;;;3.83;1.95;;;26.40;86.00;;;;;;5054572;28;20551;-42
2021/08/04 08:02:24;;;;;;;2.58;1.95;;;26.40;85.20;;;;;;5054459;28;20076;-43
2021/08/04 08:04:50;;;;;;;5.25;2.10;;;26.60;83.60;;;;;;5054524;28;20048;-43
2021/08/04 08:07:15;;;;;;;3.70;2.28;;;27.00;81.50;;;;;;5053329;28;20025;-42
2021/08/04 08:09:41;;;;;;;4.75;1.90;;;27.10;78.10;;;;;;5054399;28;20524;-44
2021/08/04 08:12:07;;;;;;;3.38;2.40;;;27.50;78.20;;;;;;5054361;28;20025;-46
2021/08/04 08:14:34;;;;;;;3.53;2.63;;;27.80;73.00;;;;;;5054346;28;20021;-43
2021/08/04 08:17:00;;;;;;;3.47;2.13;;;28.50;68.60;;;;;;5054374;28;20032;-43
2021/08/04 08:19:25;;;;;;;3.83;1.90;;;28.60;66.40;;;;;;5054217;28;20021;-43
2021/08/04 08:21:51;;;;;;;2.10;1.88;;;28.60;66.50;;;;;;5052988;28;20031;-43
2021/08/04 08:24:17;;;;;;;2.38;2.17;;;28.70;66.10;;;;;;5053981;28;20087;-43
2021/08/04 08:26:43;;;;;;;2.17;1.90;;;28.70;61.80;;;;;;5054202;28;20021;-44
2021/08/04 08:29:09;;;;;;;2.45;2.17;;;28.50;64.90;;;;;;5054102;28;20530;-43
2021/08/04 08:31:36;;;;;;;3.55;2.40;;;28.50;63.20;;;;;;5054055;28;20609;-46
2021/08/04 08:34:03;;;;;;;2.67;2.00;;;28.50;60.90;;;;;;5053957;28;20556;-43
2021/08/04 08:36:31;;;;;;;2.20;1.80;;;27.90;62.80;;;;;;5052591;28;20104;-43
2021/08/04 08:38:58;;;;;;;2.25;2.05;;;27.90;64.50;;;;;;5053756;28;20480;-43
2021/08/04 08:41:25;;;;;;;2.53;2.28;;;27.70;63.40;;;;;;5053700;28;20396;-43
2021/08/04 08:43:51;;;;;;;2.03;1.75;;;27.60;63.10;;;;;;5053819;28;20029;-44
2021/08/04 08:46:17;;;;;;;3.30;2.15;;;27.30;62.60;;;;;;5053677;28;20388;-44
2021/08/04 08:48:49;;;;;;;2.75;1.95;;;27.00;63.40;;;;;;5052945;28;20095;-44
2021/08/04 08:51:16;;;;;;;2.17;1.98;;;26.60;62.80;;;;;;5052288;28;20035;-43
2021/08/04 08:53:42;;;;;;;3.42;2.08;;;26.00;66.10;;;;;;5053523;28;20025;-42
2021/08/04 08:56:08;;;;;;;2.58;1.85;;;25.80;66.90;;;;;;5053652;28;20423;-42
2021/08/04 08:58:34;;;;;;;1.95;1.80;;;25.50;67.50;;;;;;5053380;28;20029;-42
2021/08/04 09:00:59;;;;;;;3.17;2.00;;;25.60;67.50;;;;;;5053498;28;20032;-42
2021/08/04 09:03:25;;;;;;;2.30;2.03;;;25.90;67.70;;;;;;5053252;28;20045;-46
2021/08/04 09:05:53;;;;;;;2.45;1.98;;;25.90;66.90;;;;;;5052100;28;20029;-44
2021/08/04 09:08:27;;;;;;;2.30;2.10;;;25.80;67.10;;;;;;5053237;28;20443;-44
2021/08/04 09:10:53;;;;;;;3.80;1.90;;;25.60;67.50;;;;;;5053341;28;20021;-45
2021/08/04 09:13:33;;;;;;;2.30;1.77;;;25.50;68.90;;;;;;5053097;28;20056;-42
2021/08/04 09:16:10;;;;;;;2.95;2.30;;;25.50;68.60;;;;;;5053207;28;20013;-44
2021/08/04 09:18:52;;;;;;;3.05;1.90;;;25.10;70.10;;;;;;5052963;28;20053;-42
2021/08/04 09:21:19;;;;;;;2.50;1.67;;;24.80;70.70;;;;;;5051811;28;20021;-42
2021/08/04 09:23:48;;;;;;;2.70;1.90;;;24.40;72.10;;;;;;5053040;28;20407;-42
2021/08/04 09:26:19;;;;;;;2.60;2.20;;;24.40;73.50;;;;;;5053023;28;20060;-42
2021/08/04 09:29:05;;;;;;;2.00;1.80;;;24.40;72.30;;;;;;5052998;28;20325;-46
2021/08/04 09:31:39;;;;;;;;;;;24.30;72.30;;;;;;5053238;28;20502;-42
2021/08/04 09:34:34;;;;;;;3.38;1.98;;;24.10;74.20;;;;;;5052773;28;19909;-43
2021/08/04 09:37:11;;;;;;;2.85;1.83;;;24.20;74.90;;;;;;5051526;28;20021;-43
2021/08/04 09:39:42;;;;;;;5.25;2.13;;;24.40;73.20;;;;;;5052665;28;20021;-42
2021/08/04 09:42:09;;;;;;;4.38;1.95;;;24.60;71.30;;;;;;5053040;28;20037;-42
2021/08/04 09:44:34;;;;;;;4.53;1.80;;;24.60;71.80;;;;;;5052656;28;20032;-42
2021/08/04 09:47:10;;;;;;;1.88;1.52;;;24.90;70.90;;;;;;5052810;28;20388;-43
2021/08/04 09:49:37;;;;;;;1.98;1.88;;;25.70;68.60;;;;;;5052661;28;20044;-42
2021/08/04 09:52:05;;;;;;;1.92;1.75;;;27.20;61.50;;;;;;5051218;28;20056;-42
2021/08/04 09:54:37;;;;;;;4.32;2.38;;;28.30;57.30;;;;;;5052662;28;20017;-42
2021/08/04 09:57:03;;;;;;;2.20;2.00;;;28.80;53.60;;;;;;5052764;28;20368;-43
2021/08/04 09:59:28;;;;;;;3.95;1.83;;;29.10;52.80;;;;;;5052499;28;20025;-43
2021/08/04 10:01:56;;;;;;;2.80;1.85;;;29.40;51.50;;;;;;5052429;28;20024;-45
2021/08/04 10:04:21;;;;;;;4.65;2.00;;;29.40;49.70;;;;;;5052294;28;20065;-44
2021/08/04 10:06:47;;;;;;;2.55;2.30;;;28.70;50.60;;;;;;5051310;28;20549;-44
2021/08/04 10:09:18;;;;;;;4.95;2.35;;;28.10;51.70;;;;;;5052508;28;20412;-42
2021/08/04 10:11:48;;;;;;;2.17;1.98;;;27.50;52.30;;;;;;5052398;28;20036;-44
2021/08/04 10:14:21;;;;;;;2.40;1.90;;;27.10;54.60;;;;;;5052488;28;20024;-42
2021/08/04 10:16:49;;;;;;;1.65;1.55;;;26.80;55.40;;;;;;5052302;28;20079;-42
2021/08/04 10:19:16;;;;;;;2.08;1.80;;;26.40;57.30;;;;;;5052310;28;20025;-47
2021/08/04 10:21:42;;;;;;;2.58;1.63;;;26.00;58.40;;;;;;5051100;28;20021;-42
2021/08/04 10:24:11;;;;;;;3.10;1.60;;;25.90;59.10;;;;;;5052369;28;20028;-42
2021/08/04 10:26:37;;;;;;;1.95;1.60;;;25.80;58.40;;;;;;5052194;28;20071;-43
2021/08/04 10:29:04;;;;;;;2.47;1.52;;;25.20;57.50;;;;;;5052370;28;20052;-43
2021/08/04 10:31:31;;;;;;;4.15;1.67;;;24.80;60.90;;;;;;5052068;28;20473;-44
2021/08/04 10:33:58;;;;;;;2.28;1.55;;;24.40;60.40;;;;;;5052264;28;20029;-43
2021/08/04 10:36:31;;;;;;;1.73;1.35;;;24.10;61.70;;;;;;5050993;28;20040;-43
2021/08/04 10:38:59;;;;;;;2.83;1.65;;;23.80;64.50;;;;;;5052215;28;20025;-42
2021/08/04 10:41:27;;;;;;;2.95;1.80;;;23.60;64.00;;;;;;5052088;28;20055;-42
2021/08/04 10:43:58;;;;;;;1.58;1.40;;;23.20;67.70;;;;;;5052145;28;20025;-43
2021/08/04 10:46:29;;;;;;;2.13;1.60;;;23.10;68.90;;;;;;5052040;28;20068;-44
2021/08/04 10:49:16;;;;;;;2.85;1.50;;;23.10;70.90;;;;;;5052058;28;20476;-42
2021/08/04 10:52:06;;;;;;;2.65;1.60;;;23.10;71.80;;;;;;5050631;28;20029;-42
2021/08/04 10:54:32;;;;;;;4.40;1.67;;;23.10;74.40;;;;;;5051814;28;20035;-43
2021/08/04 10:57:01;;;;;;;1.67;1.50;;;23.10;71.20;;;;;;5052104;28;20053;-42
2021/08/04 10:59:27;;;;;;;1.42;1.30;;;23.20;71.20;;;;;;5052170;28;20025;-43
2021/08/04 11:02:03;;;;;;;3.95;1.77;;;23.20;69.20;;;;;;5051946;28;20029;-42
2021/08/04 11:04:29;;;;;;;2.17;1.50;;;23.30;67.80;;;;;;5051724;28;20049;-42
2021/08/04 11:07:09;;;;;;;2.15;1.67;;;23.20;67.90;;;;;;5050619;28;20104;-43
2021/08/04 11:09:38;;;;;;;2.17;1.60;;;23.50;67.90;;;;;;5050557;28;20021;-42
2021/08/04 11:12:05;;;;;;;4.57;1.92;;;23.80;64.80;;;;;;5052281;28;20526;-44
2021/08/04 11:14:46;;;;;;;2.65;1.67;;;24.00;64.80;;;;;;5055547;28;20180;-43
2021/08/04 11:17:25;;;;;;;3.45;1.63;;;24.00;63.30;;;;;;5055560;28;20392;-45
2021/08/04 11:19:56;;;;;;;3.00;1.45;;;24.10;62.80;;;;;;5054154;28;20160;-45
2021/08/04 11:22:23;;;;;;;2.78;1.30;;;24.10;63.30;;;;;;5055609;28;20025;-45
2021/08/04 11:24:53;;;;;;;2.58;1.70;;;24.20;64.00;;;;;;5055282;28;20115;-43
2021/08/04 11:27:20;;;;;;;2.00;1.55;;;24.00;64.20;;;;;;5055568;28;20025;-45
2021/08/04 11:29:47;;;;;;;1.90;1.55;;;24.00;64.20;;;;;;5055413;28;20417;-44
2021/08/04 11:32:19;;;;;;;1.67;1.30;;;23.90;62.70;;;;;;5055032;28;20029;-44
2021/08/04 11:34:45;;;;;;;3.28;1.83;;;23.60;63.60;;;;;;5054736;28;20392;-42
2021/08/04 11:37:11;;;;;;;4.85;1.67;;;23.30;64.50;;;;;;5054268;28;20110;-42
2021/08/04 11:39:50;;;;;;;2.03;1.40;;;22.90;65.70;;;;;;5055004;28;20075;-44
2021/08/04 11:42:16;;;;;;;2.67;1.40;;;22.70;68.10;;;;;;5054984;28;20365;-42
2021/08/04 11:44:43;;;;;;;3.22;1.70;;;22.60;70.30;;;;;;5054756;28;20040;-42
2021/08/04 11:47:10;;;;;;;2.65;1.60;;;22.70;72.20;;;;;;5054937;28;20024;-42
2021/08/04 11:49:43;;;;;;;1.40;1.20;;;22.80;72.30;;;;;;5054844;28;20384;-44
2021/08/04 11:52:11;;;;;;;1.75;1.45;;;22.70;72.70;;;;;;5053759;28;20495;-43
2021/08/04 11:54:53;;;;;;;3.28;1.50;;;22.60;73.80;;;;;;5054643;28;20025;-44
2021/08/04 11:57:41;;;;;;;3.22;1.58;;;22.70;76.20;;;;;;5054798;28;20036;-45
2021/08/04 12:00:11;;;;;;;4.03;1.83;;;22.70;72.00;;;;;;5054669;28;20372;-43
2021/08/04 12:02:38;;;;;;;2.47;2.00;;;22.80;71.90;;;;;;5054487;28;20078;-42
2021/08/04 12:05:07;;;;;;;2.88;1.60;;;22.90;69.70;;;;;;5053350;28;20057;-44
2021/08/04 12:07:34;;;;;;;2.00;1.60;;;22.70;67.90;;;;;;5054605;28;20403;-42
2021/08/04 12:10:08;;;;;;;2.40;1.70;;;22.70;68.30;;;;;;5054927;28;20411;-41
2021/08/04 12:12:36;;;;;;;1.55;1.45;;;22.60;69.20;;;;;;5054620;28;20067;-43
2021/08/04 12:15:12;;;;;;;2.28;1.95;;;22.70;68.00;;;;;;5054366;28;20042;-43
2021/08/04 12:17:38;;;;;;;2.70;2.00;;;22.80;64.30;;;;;;5054375;28;20063;-44
2021/08/04 12:20:12;;;;;;;2.45;1.80;;;22.90;65.50;;;;;;5052861;28;20035;-44
2021/08/04 12:22:38;;;;;;;1.80;1.40;;;23.00;65.30;;;;;;5054208;28;20029;-43
2021/08/04 12:25:07;;;;;;;2.08;1.60;;;23.00;66.00;;;;;;5054170;28;20025;-42
2021/08/04 12:27:47;;;;;;;2.65;1.58;;;23.20;65.80;;;;;;5054134;28;20116;-43
2021/08/04 12:30:26;;;;;;;2.92;1.92;;;23.30;66.10;;;;;;5054168;28;20029;-43
2021/08/04 12:33:07;;;;;;;2.63;1.80;;;23.10;65.70;;;;;;5054027;28;20108;-42
2021/08/04 12:35:41;;;;;;;2.03;1.70;;;23.10;64.10;;;;;;5052659;28;20025;-44
2021/08/04 12:38:10;;;;;;;2.40;1.75;;;22.90;65.80;;;;;;5054089;28;20417;-43
2021/08/04 12:40:37;;;;;;;1.98;1.70;;;22.80;65.30;;;;;;5054131;28;20463;-44
2021/08/04 12:43:03;;;;;;;1.95;1.70;;;22.60;66.40;;;;;;5053739;28;20116;-45
2021/08/04 12:45:29;;;;;;;1.90;1.60;;;22.60;68.00;;;;;;5054131;28;20032;-42
2021/08/04 12:47:58;;;;;;;1.48;1.33;;;22.50;67.00;;;;;;5053704;28;20089;-43
2021/08/04 12:50:25;;;;;;;4.85;1.80;;;22.60;67.30;;;;;;5052563;28;20167;-43
2021/08/04 12:52:52;;;;;;;2.08;1.70;;;22.70;67.50;;;;;;5053507;28;20029;-42